Time;durP1;ratioP1;P1;durP2;ratioP2;P2;SDS_P1;SDS_P2;PMS_P1;PMS_P2;Temp;Humidity;BMP_temperature;BMP_pressure;BME280_temperature;BME280_humidity;BME280_pressure;Samples;Min_cycle;Max_cycle;Signal;HPM_P1;HPM_P2
2023/07/01 00:00:10;;;;;;;1.35;1.00;;;19.90;45.50;;;;;;4924965;29;20055;-58
2023/07/01 00:02:38;;;;;;;1.70;0.93;;;19.90;45.50;;;;;;4923721;29;20411;-60
2023/07/01 00:05:06;;;;;;;2.65;1.20;;;19.90;45.50;;;;;;4924344;29;20519;-57
2023/07/01 00:07:34;;;;;;;2.97;1.15;;;19.90;45.40;;;;;;4920619;29;20068;-59
2023/07/01 00:10:01;;;;;;;4.13;1.23;;;19.90;45.40;;;;;;4925057;29;20426;-57
2023/07/01 00:12:28;;;;;;;2.10;1.00;;;19.90;45.40;;;;;;4922874;29;20130;-59
2023/07/01 00:14:56;;;;;;;2.45;1.33;;;19.90;45.30;;;;;;4924905;29;20059;-59
2023/07/01 00:17:23;;;;;;;1.38;1.00;;;19.90;45.30;;;;;;4925466;29;20082;-59
2023/07/01 00:19:52;;;;;;;2.88;1.20;;;19.90;45.30;;;;;;4924466;29;20083;-59
2023/07/01 00:22:19;;;;;;;2.55;0.95;;;19.90;45.30;;;;;;4919014;29;20051;-59
2023/07/01 00:24:46;;;;;;;3.95;1.27;;;19.90;45.30;;;;;;4924473;29;20503;-58
2023/07/01 00:27:13;;;;;;;1.13;0.77;;;19.90;45.30;;;;;;4923800;29;20062;-58
2023/07/01 00:29:41;;;;;;;3.45;1.23;;;19.90;45.20;;;;;;4925623;29;20400;-57
2023/07/01 00:32:10;;;;;;;1.77;0.93;;;19.90;45.30;;;;;;4924633;29;20059;-59
2023/07/01 00:34:37;;;;;;;1.88;1.02;;;19.90;45.30;;;;;;4922936;29;20067;-59
2023/07/01 00:37:06;;;;;;;3.72;1.10;;;19.90;45.30;;;;;;4923864;29;20124;-58
2023/07/01 00:39:33;;;;;;;2.85;1.15;;;19.90;45.30;;;;;;4924799;29;20500;-58
2023/07/01 00:42:01;;;;;;;1.58;0.88;;;19.90;45.30;;;;;;4924046;29;20062;-58
2023/07/01 00:44:28;;;;;;;1.70;1.05;;;20.00;45.30;;;;;;4923588;29;20545;-60
2023/07/01 00:46:55;;;;;;;1.98;1.00;;;20.00;45.30;;;;;;4924335;29;20051;-60
2023/07/01 00:49:23;;;;;;;1.40;0.75;;;20.00;45.30;;;;;;4923011;29;20500;-60
2023/07/01 00:51:50;;;;;;;3.00;1.20;;;20.00;45.20;;;;;;4917367;29;20052;-60
2023/07/01 00:54:19;;;;;;;1.23;0.88;;;20.00;45.30;;;;;;4924150;29;20397;-59
2023/07/01 00:56:46;;;;;;;2.20;0.88;;;20.00;45.30;;;;;;4924032;29;20072;-60
2023/07/01 00:59:13;;;;;;;4.70;1.15;;;20.00;45.40;;;;;;4924064;29;20464;-60
2023/07/01 01:01:47;;;;;;;2.42;1.02;;;20.00;45.40;;;;;;4922730;29;20051;-59
2023/07/01 01:04:20;;;;;;;3.03;0.82;;;20.00;45.30;;;;;;4924485;23;20059;-60
2023/07/01 01:06:53;;;;;;;2.03;1.17;;;20.00;45.30;;;;;;4899520;29;20063;-60
2023/07/01 01:09:27;;;;;;;3.50;0.93;;;20.00;45.30;;;;;;4905585;29;20052;-60
2023/07/01 01:11:56;;;;;;;2.10;1.23;;;20.00;45.30;;;;;;4905327;29;20059;-60
2023/07/01 01:14:25;;;;;;;1.70;0.80;;;20.00;45.30;;;;;;4906160;29;20060;-61
2023/07/01 01:16:53;;;;;;;3.90;1.33;;;20.00;45.40;;;;;;4905358;29;20508;-60
2023/07/01 01:19:29;;;;;;;2.40;1.25;;;20.00;45.30;;;;;;4901571;29;20083;-61
2023/07/01 01:22:10;;;;;;;1.52;0.90;;;20.00;45.30;;;;;;4903919;29;20419;-64
2023/07/01 01:24:41;;;;;;;2.83;1.30;;;20.00;45.30;;;;;;4905580;29;20062;-60
2023/07/01 01:27:12;;;;;;;2.60;1.13;;;20.10;45.50;;;;;;4905599;29;20504;-61
2023/07/01 01:29:41;;;;;;;2.40;1.10;;;20.10;45.50;;;;;;4906456;29;20052;-60
2023/07/01 01:32:09;;;;;;;3.13;1.23;;;20.10;45.40;;;;;;4905692;29;20055;-61
2023/07/01 01:34:36;;;;;;;2.25;1.10;;;20.10;45.40;;;;;;4901709;29;20075;-63
2023/07/01 01:37:07;;;;;;;1.77;1.20;;;20.10;45.50;;;;;;4904063;29;20063;-61
2023/07/01 01:39:43;;;;;;;1.60;0.98;;;20.10;45.50;;;;;;4905748;29;20063;-60
2023/07/01 01:42:17;;;;;;;3.28;1.10;;;20.10;45.60;;;;;;4908781;29;20218;-60
2023/07/01 01:44:52;;;;;;;2.58;1.15;;;20.10;45.50;;;;;;4906719;29;20059;-60
2023/07/01 01:47:20;;;;;;;;;;;20.10;45.50;;;;;;4909055;29;20067;-60
2023/07/01 01:49:49;;;;;;;2.80;1.20;;;20.20;45.60;;;;;;4905731;29;19924;-60
2023/07/01 01:52:18;;;;;;;1.27;0.90;;;20.20;45.50;;;;;;4906544;29;20063;-60
2023/07/01 01:54:47;;;;;;;2.33;1.10;;;20.20;45.50;;;;;;4908885;29;20056;-60
2023/07/01 01:57:15;;;;;;;1.60;1.02;;;20.20;45.40;;;;;;4908711;29;20056;-60
2023/07/01 01:59:44;;;;;;;3.38;1.05;;;20.10;45.50;;;;;;4907431;29;20087;-63
2023/07/01 02:02:13;;;;;;;2.05;1.13;;;20.10;45.50;;;;;;4908075;29;20056;-60
2023/07/01 02:04:40;;;;;;;1.50;0.95;;;20.20;45.60;;;;;;4907169;29;20056;-60
2023/07/01 02:07:07;;;;;;;2.35;1.10;;;20.10;45.60;;;;;;4903886;29;20068;-60
2023/07/01 02:09:34;;;;;;;5.78;1.25;;;20.10;45.50;;;;;;4901980;29;20052;-63
2023/07/01 02:12:02;;;;;;;2.95;1.02;;;20.10;45.60;;;;;;4906986;29;20488;-62
2023/07/01 02:14:29;;;;;;;2.00;0.98;;;20.20;45.80;;;;;;4909133;29;20420;-60
2023/07/01 02:16:57;;;;;;;2.72;1.30;;;20.20;45.70;;;;;;4907628;29;20075;-61
2023/07/01 02:19:25;;;;;;;2.05;1.00;;;20.20;45.70;;;;;;4906914;29;20449;-61
2023/07/01 02:21:52;;;;;;;4.38;1.40;;;20.10;45.80;;;;;;4904705;29;20420;-59
2023/07/01 02:24:20;;;;;;;1.70;1.00;;;20.20;45.90;;;;;;4907676;29;20060;-60
2023/07/01 02:26:47;;;;;;;2.47;1.35;;;20.20;45.80;;;;;;4909103;29;20508;-60
2023/07/01 02:29:14;;;;;;;4.38;1.60;;;20.10;45.80;;;;;;4908813;29;20056;-60
2023/07/01 02:31:41;;;;;;;2.05;1.08;;;20.20;45.90;;;;;;4908698;29;20048;-63
2023/07/01 02:34:08;;;;;;;1.58;1.13;;;20.20;45.90;;;;;;4905273;29;20493;-63
2023/07/01 02:36:40;;;;;;;4.72;1.25;;;20.20;45.90;;;;;;4905752;29;20357;-62
2023/07/01 02:39:07;;;;;;;2.00;1.10;;;20.10;45.90;;;;;;4908833;29;20064;-61
2023/07/01 02:41:34;;;;;;;1.77;1.02;;;20.20;46.00;;;;;;4908284;29;20056;-60
2023/07/01 02:44:02;;;;;;;2.45;1.20;;;20.20;46.00;;;;;;4908022;29;20056;-60
2023/07/01 02:46:30;;;;;;;3.00;1.13;;;20.20;45.90;;;;;;4908588;29;20052;-60
2023/07/01 02:48:57;;;;;;;7.90;1.42;;;20.20;45.90;;;;;;4907614;29;20492;-63
2023/07/01 02:51:25;;;;;;;4.70;1.60;;;20.20;45.80;;;;;;4906350;29;20048;-63
2023/07/01 02:53:53;;;;;;;2.78;1.30;;;20.20;45.80;;;;;;4909010;29;20060;-62
2023/07/01 02:56:20;;;;;;;1.92;1.35;;;20.20;45.80;;;;;;4907340;29;20056;-61
2023/07/01 02:58:48;;;;;;;2.03;1.27;;;20.20;45.90;;;;;;4908053;29;20063;-60
2023/07/01 03:01:15;;;;;;;1.60;1.20;;;20.20;46.00;;;;;;4908323;29;20051;-59
2023/07/01 03:03:42;;;;;;;2.05;1.00;;;20.20;46.00;;;;;;4908495;29;20428;-60
2023/07/01 03:06:10;;;;;;;1.63;1.08;;;20.20;46.00;;;;;;4907006;29;20059;-62
2023/07/01 03:08:37;;;;;;;1.67;1.20;;;20.20;46.00;;;;;;4906208;29;20428;-61
2023/07/01 03:11:06;;;;;;;4.22;1.60;;;20.20;46.00;;;;;;4910363;29;20052;-63
2023/07/01 03:13:33;;;;;;;2.90;1.30;;;20.20;46.20;;;;;;4926194;29;20499;-60
2023/07/01 03:16:00;;;;;;;3.00;1.38;;;20.20;46.20;;;;;;4926715;29;20059;-60
2023/07/01 03:18:28;;;;;;;2.60;1.30;;;20.20;46.10;;;;;;4926091;29;20066;-60
2023/07/01 03:20:57;;;;;;;2.90;1.30;;;20.20;46.10;;;;;;4926490;29;20076;-61
2023/07/01 03:23:25;;;;;;;1.77;1.20;;;20.20;46.20;;;;;;4926988;29;20059;-60
2023/07/01 03:25:52;;;;;;;2.75;1.52;;;20.20;46.10;;;;;;4927202;29;20602;-60
2023/07/01 03:28:20;;;;;;;2.45;1.15;;;20.30;46.30;;;;;;4926143;29;20059;-60
2023/07/01 03:30:48;;;;;;;1.23;0.93;;;20.30;46.30;;;;;;4926314;29;20492;-60
2023/07/01 03:33:17;;;;;;;2.33;1.30;;;20.30;46.40;;;;;;4926494;29;20506;-62
2023/07/01 03:35:44;;;;;;;1.92;1.20;;;20.30;46.30;;;;;;4925801;29;20145;-59
2023/07/01 03:38:13;;;;;;;1.52;1.08;;;20.30;46.30;;;;;;4925782;29;20059;-63
2023/07/01 03:40:40;;;;;;;2.25;1.25;;;20.30;46.30;;;;;;4926048;29;20059;-60
2023/07/01 03:43:07;;;;;;;2.80;1.40;;;20.30;46.20;;;;;;4926069;29;20055;-59
2023/07/01 03:45:36;;;;;;;1.58;1.30;;;20.30;46.10;;;;;;4926274;29;20056;-60
2023/07/01 03:48:05;;;;;;;3.67;1.50;;;20.30;46.10;;;;;;4926018;29;20064;-61
2023/07/01 03:50:32;;;;;;;2.17;1.13;;;20.30;46.20;;;;;;4925089;29;20063;-60
2023/07/01 03:52:59;;;;;;;1.67;1.25;;;20.40;46.30;;;;;;4926476;29;20496;-61
2023/07/01 03:55:27;;;;;;;2.13;1.15;;;20.40;46.40;;;;;;4925598;29;20059;-60
2023/07/01 03:57:54;;;;;;;4.35;1.33;;;20.40;46.70;;;;;;4925069;29;20056;-60
2023/07/01 04:00:21;;;;;;;2.28;1.25;;;20.40;46.80;;;;;;4926047;29;20064;-63
2023/07/01 04:02:52;;;;;;;3.17;1.20;;;20.30;46.80;;;;;;4925367;29;20067;-60
2023/07/01 04:05:19;;;;;;;3.33;1.20;;;20.40;46.90;;;;;;4924014;29;20060;-62
2023/07/01 04:07:49;;;;;;;2.72;1.33;;;20.40;47.00;;;;;;4924227;29;20062;-61
2023/07/01 04:10:16;;;;;;;2.60;1.38;;;20.40;47.00;;;;;;4925635;29;20048;-63
2023/07/01 04:12:44;;;;;;;2.53;1.23;;;20.40;47.10;;;;;;4924295;29;20051;-61
2023/07/01 04:15:11;;;;;;;1.83;1.23;;;20.40;47.10;;;;;;4922835;29;20059;-61
2023/07/01 04:17:41;;;;;;;3.00;1.40;;;20.40;47.20;;;;;;4920021;29;20059;-60
2023/07/01 04:20:11;;;;;;;1.88;1.05;;;20.40;47.20;;;;;;4925309;29;20492;-61
2023/07/01 04:22:39;;;;;;;1.52;1.15;;;20.40;47.30;;;;;;4924350;29;20058;-60
2023/07/01 04:25:07;;;;;;;2.67;1.20;;;20.40;47.40;;;;;;4925320;29;20056;-62
2023/07/01 04:27:34;;;;;;;3.22;1.63;;;20.40;47.40;;;;;;4920105;29;20067;-61
2023/07/01 04:30:02;;;;;;;2.17;1.30;;;20.40;47.40;;;;;;4921922;29;20102;-63
2023/07/01 04:32:29;;;;;;;4.05;1.63;;;20.40;47.50;;;;;;4920925;29;20071;-61
2023/07/01 04:34:57;;;;;;;6.07;2.83;;;20.40;47.40;;;;;;4916825;29;20063;-64
2023/07/01 04:37:26;;;;;;;2.88;1.85;;;20.40;47.50;;;;;;4922312;29;20054;-64
2023/07/01 04:39:53;;;;;;;2.67;1.48;;;20.40;47.60;;;;;;4924495;29;20059;-64
2023/07/01 04:42:20;;;;;;;3.17;1.23;;;20.40;47.60;;;;;;4921498;29;20503;-64
2023/07/01 04:44:53;;;;;;;1.90;1.25;;;20.40;47.60;;;;;;4919808;29;20051;-64
2023/07/01 04:47:21;;;;;;;5.18;1.40;;;20.40;47.60;;;;;;4923869;29;20059;-64
2023/07/01 04:49:52;;;;;;;2.90;1.40;;;20.40;47.60;;;;;;4923978;29;20056;-64
2023/07/01 04:52:19;;;;;;;3.25;1.48;;;20.40;47.60;;;;;;4922011;29;20052;-64
2023/07/01 04:54:48;;;;;;;2.58;1.40;;;20.40;47.60;;;;;;4924033;29;20055;-64
2023/07/01 04:57:16;;;;;;;3.28;1.33;;;20.40;47.70;;;;;;4923596;29;20052;-64
2023/07/01 04:59:43;;;;;;;2.22;1.23;;;20.50;47.80;;;;;;4921534;29;20055;-64
2023/07/01 05:02:11;;;;;;;1.85;1.20;;;20.50;47.80;;;;;;4924056;29;20407;-65
2023/07/01 05:04:38;;;;;;;3.67;1.40;;;20.50;47.90;;;;;;4922923;29;20056;-64
2023/07/01 05:07:06;;;;;;;3.72;1.40;;;20.50;48.00;;;;;;4920149;29;20063;-64
2023/07/01 05:09:33;;;;;;;5.25;1.27;;;20.50;47.90;;;;;;4924567;29;20538;-64
2023/07/01 05:12:02;;;;;;;3.13;1.55;;;20.50;47.80;;;;;;4922753;29;20072;-64
2023/07/01 05:14:30;;;;;;;2.72;1.60;;;20.50;47.80;;;;;;4922024;29;20055;-64
2023/07/01 05:16:57;;;;;;;2.63;1.55;;;20.50;47.80;;;;;;4922785;29;20102;-64
2023/07/01 05:19:24;;;;;;;1.83;1.23;;;20.50;47.80;;;;;;4920809;29;20059;-64
2023/07/01 05:21:53;;;;;;;6.03;1.70;;;20.60;47.80;;;;;;4921768;29;20426;-64
2023/07/01 05:24:21;;;;;;;2.20;1.27;;;20.60;47.80;;;;;;4922830;29;20524;-64
2023/07/01 05:26:49;;;;;;;3.15;1.30;;;20.60;47.80;;;;;;4923847;29;20063;-64
2023/07/01 05:29:20;;;;;;;2.08;1.23;;;20.60;47.90;;;;;;4921880;29;20496;-63
2023/07/01 05:31:49;;;;;;;3.22;1.45;;;20.60;48.00;;;;;;4924282;29;20415;-64
2023/07/01 05:34:17;;;;;;;2.17;1.50;;;20.60;47.90;;;;;;4919345;29;20047;-63
2023/07/01 05:36:44;;;;;;;4.78;2.03;;;20.60;47.90;;;;;;4920354;29;20055;-64
2023/07/01 05:39:12;;;;;;;5.05;1.80;;;20.60;47.90;;;;;;4922265;29;20060;-64
2023/07/01 05:41:40;;;;;;;3.30;1.70;;;20.60;47.90;;;;;;4922608;29;20071;-64
2023/07/01 05:44:08;;;;;;;5.05;1.50;;;20.60;47.90;;;;;;4922298;29;20082;-64
2023/07/01 05:46:38;;;;;;;3.35;1.52;;;20.60;48.00;;;;;;4923800;29;20068;-64
2023/07/01 05:49:05;;;;;;;3.95;1.60;;;20.70;48.00;;;;;;4923373;29;20059;-64
2023/07/01 05:51:32;;;;;;;4.35;1.35;;;20.60;47.80;;;;;;4920196;29;20066;-63
2023/07/01 05:53:59;;;;;;;3.63;1.75;;;20.70;47.80;;;;;;4922222;29;20064;-64
2023/07/01 05:56:27;;;;;;;2.90;1.70;;;20.60;47.80;;;;;;4922768;29;20436;-62
2023/07/01 05:58:55;;;;;;;1.92;1.35;;;20.70;47.80;;;;;;4923495;29;20504;-62
2023/07/01 06:01:23;;;;;;;3.53;1.77;;;20.60;47.70;;;;;;4921318;29;20485;-63
2023/07/01 06:03:52;;;;;;;4.28;1.88;;;20.60;47.70;;;;;;4921524;29;20056;-63
2023/07/01 06:06:19;;;;;;;2.70;1.67;;;20.70;47.80;;;;;;4922830;29;20066;-63
2023/07/01 06:08:47;;;;;;;3.28;1.60;;;20.70;47.90;;;;;;4923613;29;20055;-61
2023/07/01 06:11:14;;;;;;;3.63;1.67;;;20.70;48.00;;;;;;4923861;29;20058;-63
2023/07/01 06:13:45;;;;;;;3.55;1.63;;;20.70;48.00;;;;;;4923923;29;20047;-63
2023/07/01 06:16:13;;;;;;;5.35;2.00;;;20.70;48.10;;;;;;4922435;29;20051;-61
2023/07/01 06:18:40;;;;;;;4.13;2.00;;;20.70;48.00;;;;;;4924503;29;20500;-63
2023/07/01 06:21:09;;;;;;;4.68;1.70;;;20.70;48.00;;;;;;4918467;29;20578;-62
2023/07/01 06:23:37;;;;;;;6.28;2.03;;;20.70;48.10;;;;;;4923801;29;20496;-61
2023/07/01 06:26:04;;;;;;;4.25;1.80;;;20.70;48.10;;;;;;4924822;29;20059;-62
2023/07/01 06:28:32;;;;;;;3.05;1.50;;;20.70;48.10;;;;;;4925391;29;20119;-63
2023/07/01 06:30:59;;;;;;;4.00;1.55;;;20.80;48.20;;;;;;4924158;29;20052;-63
2023/07/01 06:33:26;;;;;;;4.13;2.15;;;20.80;48.30;;;;;;4926578;29;20404;-63
2023/07/01 06:35:53;;;;;;;2.78;1.70;;;20.80;48.30;;;;;;4924242;29;20071;-62
2023/07/01 06:38:22;;;;;;;3.58;1.98;;;20.80;48.40;;;;;;4924395;29;20494;-62
2023/07/01 06:40:49;;;;;;;3.47;2.10;;;20.80;48.40;;;;;;4927276;29;20066;-62
2023/07/01 06:43:16;;;;;;;5.53;1.75;;;20.80;48.40;;;;;;4924767;29;20051;-62
2023/07/01 06:45:45;;;;;;;3.53;1.60;;;20.80;48.40;;;;;;4927281;29;20476;-62
2023/07/01 06:48:12;;;;;;;1.95;1.50;;;20.80;48.40;;;;;;4926679;29;20059;-63
2023/07/01 06:50:39;;;;;;;3.92;2.10;;;20.80;48.50;;;;;;4921562;29;20059;-62
2023/07/01 06:53:07;;;;;;;2.60;1.63;;;20.80;48.60;;;;;;4924147;29;20055;-62
2023/07/01 06:55:35;;;;;;;3.50;1.83;;;20.80;48.80;;;;;;4923139;29;20056;-61
2023/07/01 06:58:03;;;;;;;3.50;1.75;;;20.80;48.90;;;;;;4925200;29;20062;-61
2023/07/01 07:00:30;;;;;;;6.40;2.00;;;20.80;49.00;;;;;;4926758;29;20055;-63
2023/07/01 07:02:57;;;;;;;4.05;2.15;;;20.80;49.10;;;;;;4924442;29;20059;-61
2023/07/01 07:05:25;;;;;;;6.22;2.17;;;20.90;49.20;;;;;;4924630;29;20547;-60
2023/07/01 07:07:53;;;;;;;4.13;2.20;;;20.80;49.10;;;;;;4925190;29;20062;-59
2023/07/01 07:10:20;;;;;;;7.82;4.20;;;20.90;49.00;;;;;;4925477;29;20056;-54
2023/07/01 07:12:49;;;;;;;9.13;3.30;;;20.80;48.90;;;;;;4925861;29;20062;-59
2023/07/01 07:15:16;;;;;;;3.42;2.00;;;20.80;48.90;;;;;;4925979;29;20079;-57
2023/07/01 07:17:44;;;;;;;3.50;1.80;;;20.90;48.90;;;;;;4926767;29;20060;-58
2023/07/01 07:20:12;;;;;;;2.28;1.75;;;20.90;48.80;;;;;;4923515;29;20055;-55
2023/07/01 07:22:39;;;;;;;3.67;2.15;;;20.90;48.90;;;;;;4926210;29;20063;-55
2023/07/01 07:25:07;;;;;;;2.75;1.90;;;20.90;49.50;;;;;;4926439;29;20059;-55
2023/07/01 07:27:34;;;;;;;2.83;1.77;;;20.90;49.00;;;;;;4926715;29;20055;-59
2023/07/01 07:30:04;;;;;;;7.60;1.70;;;20.90;49.00;;;;;;4923636;29;20059;-59
2023/07/01 07:32:31;;;;;;;2.47;1.73;;;20.90;49.20;;;;;;4922482;29;20056;-54
2023/07/01 07:34:58;;;;;;;5.78;1.95;;;20.90;49.20;;;;;;4924930;29;20052;-55
2023/07/01 07:37:25;;;;;;;3.25;1.65;;;20.90;49.30;;;;;;4923630;29;20055;-57
2023/07/01 07:39:53;;;;;;;2.75;1.60;;;21.00;49.40;;;;;;4924266;29;20055;-57
2023/07/01 07:42:20;;;;;;;5.63;1.70;;;21.00;49.40;;;;;;4923937;29;20059;-59
2023/07/01 07:44:47;;;;;;;4.15;1.63;;;21.00;49.50;;;;;;4924881;29;20055;-60
2023/07/01 07:50:38;;;;;;;4.30;1.88;;;21.00;49.90;;;;;;4924616;29;20051;-57
2023/07/01 07:53:05;;;;;;;2.67;1.50;;;21.00;49.80;;;;;;4925144;29;20527;-56
2023/07/01 07:55:33;;;;;;;1.83;1.20;;;21.00;50.10;;;;;;4926075;29;20659;-56
2023/07/01 07:58:01;;;;;;;2.70;1.70;;;21.00;50.20;;;;;;4925184;29;20066;-57
2023/07/01 08:00:29;;;;;;;4.13;1.60;;;21.00;50.40;;;;;;4925841;29;20056;-51
2023/07/01 08:02:56;;;;;;;2.33;1.40;;;21.00;50.50;;;;;;4924579;29;20627;-55
2023/07/01 08:05:24;;;;;;;4.70;1.55;;;21.00;50.60;;;;;;4921521;29;20066;-58
2023/07/01 08:07:53;;;;;;;2.50;1.50;;;21.00;50.70;;;;;;4922565;29;20052;-59
2023/07/01 08:10:20;;;;;;;3.63;1.70;;;21.00;50.80;;;;;;4918638;29;20062;-59
2023/07/01 08:12:48;;;;;;;2.70;1.63;;;21.10;51.10;;;;;;4922782;29;20075;-59
2023/07/01 08:15:15;;;;;;;2.60;1.67;;;21.00;51.30;;;;;;4923383;29;20051;-59
2023/07/01 08:17:42;;;;;;;3.67;1.77;;;21.10;51.40;;;;;;4918554;29;20062;-59
2023/07/01 08:20:11;;;;;;;2.63;2.00;;;21.10;51.60;;;;;;4920040;29;20350;-58
2023/07/01 08:22:38;;;;;;;3.70;1.92;;;21.20;51.70;;;;;;4923299;29;20052;-59
2023/07/01 08:25:07;;;;;;;3.47;1.58;;;21.20;51.80;;;;;;4923150;29;20060;-58
2023/07/01 08:27:34;;;;;;;4.93;1.90;;;21.20;52.00;;;;;;4923863;29;20500;-59
2023/07/01 08:30:02;;;;;;;3.83;1.50;;;21.30;52.00;;;;;;4922220;29;20060;-60
2023/07/01 08:32:29;;;;;;;3.05;1.60;;;21.30;52.00;;;;;;4921685;29;20062;-58
2023/07/01 08:34:56;;;;;;;3.20;1.90;;;21.40;52.10;;;;;;4923234;29;20328;-58
2023/07/01 08:37:24;;;;;;;4.15;1.67;;;21.40;52.20;;;;;;4921315;29;20059;-59
2023/07/01 08:39:51;;;;;;;5.60;2.05;;;21.50;52.20;;;;;;4923563;29;20062;-56
2023/07/01 08:42:23;;;;;;;2.95;1.98;;;21.50;52.20;;;;;;4921962;29;20058;-59
2023/07/01 08:44:52;;;;;;;4.05;2.00;;;21.60;52.30;;;;;;4924056;29;20052;-59
2023/07/01 08:47:21;;;;;;;2.35;1.35;;;21.60;52.30;;;;;;4920479;29;20511;-58
2023/07/01 08:49:54;;;;;;;5.22;1.70;;;21.60;52.30;;;;;;4921455;29;20060;-60
2023/07/01 08:52:23;;;;;;;5.30;1.63;;;21.70;52.40;;;;;;4919978;29;20066;-58
2023/07/01 08:54:50;;;;;;;2.92;1.85;;;21.70;52.40;;;;;;4922560;29;20056;-59
2023/07/01 08:57:20;;;;;;;6.03;2.00;;;21.70;52.50;;;;;;4918785;29;20078;-58
2023/07/01 08:59:48;;;;;;;4.20;1.98;;;21.80;52.60;;;;;;4921629;29;20516;-58
2023/07/01 09:02:16;;;;;;;3.15;1.23;;;21.80;52.60;;;;;;4919950;29;20056;-60
2023/07/01 09:04:43;;;;;;;2.75;1.90;;;21.80;52.60;;;;;;4921594;29;20450;-59
2023/07/01 09:07:11;;;;;;;2.88;1.52;;;21.80;52.70;;;;;;4921276;29;20048;-59
2023/07/01 09:09:39;;;;;;;3.33;1.73;;;21.80;52.60;;;;;;4922572;29;20575;-58
2023/07/01 09:12:07;;;;;;;3.10;1.77;;;21.80;52.60;;;;;;4922933;29;20062;-58
2023/07/01 09:15:00;;;;;;;3.28;1.27;;;21.80;52.60;;;;;;4920392;29;20052;-59
2023/07/01 09:17:29;;;;;;;5.57;1.55;;;21.80;52.70;;;;;;4920723;29;20398;-59
2023/07/01 09:19:59;;;;;;;4.15;1.60;;;21.80;52.60;;;;;;4921953;29;20071;-58
2023/07/01 09:22:27;;;;;;;1.85;1.45;;;21.80;52.70;;;;;;4923027;29;20055;-58
2023/07/01 09:24:55;;;;;;;5.03;1.42;;;21.80;52.70;;;;;;4924793;29;20055;-57
2023/07/01 09:27:22;;;;;;;1.90;1.38;;;21.80;52.90;;;;;;4924635;29;20067;-58
2023/07/01 09:29:52;;;;;;;4.68;1.30;;;21.80;53.00;;;;;;4924255;29;20076;-60
2023/07/01 09:32:29;;;;;;;3.75;1.60;;;21.70;53.00;;;;;;4924355;29;20511;-56
2023/07/01 09:34:57;;;;;;;2.58;1.63;;;21.70;53.30;;;;;;4922983;29;20044;-59
2023/07/01 09:37:25;;;;;;;2.00;1.48;;;21.70;53.20;;;;;;4923511;29;20056;-58
2023/07/01 09:39:53;;;;;;;2.17;1.40;;;21.70;53.30;;;;;;4925262;29;20075;-58
2023/07/01 09:42:20;;;;;;;3.83;1.70;;;21.70;53.50;;;;;;4924361;29;20060;-58
2023/07/01 09:45:06;;;;;;;3.25;1.60;;;21.70;53.50;;;;;;4923851;29;20496;-59
2023/07/01 09:47:35;;;;;;;2.33;1.33;;;21.70;53.80;;;;;;4923735;29;20059;-58
2023/07/01 09:50:02;;;;;;;2.00;1.58;;;21.70;53.80;;;;;;4922132;29;20078;-57
2023/07/01 09:52:33;;;;;;;1.73;1.40;;;21.70;53.90;;;;;;4923429;29;20060;-60
2023/07/01 09:55:02;;;;;;;2.33;1.50;;;21.70;54.10;;;;;;4925220;29;20429;-59
2023/07/01 09:57:30;;;;;;;3.47;1.55;;;21.80;54.30;;;;;;4921601;29;20068;-58
2023/07/01 09:59:57;;;;;;;2.00;1.50;;;21.80;54.30;;;;;;4923897;29;20507;-59
2023/07/01 10:02:25;;;;;;;2.88;1.48;;;21.80;54.50;;;;;;4928046;29;20418;-58
2023/07/01 10:04:55;;;;;;;3.15;1.15;;;21.80;54.50;;;;;;4926611;29;20071;-58
2023/07/01 10:07:22;;;;;;;2.85;1.40;;;21.90;54.60;;;;;;4927893;29;20060;-58
2023/07/01 10:09:51;;;;;;;1.75;1.05;;;21.90;54.40;;;;;;4926761;29;20403;-58
2023/07/01 10:12:19;;;;;;;1.92;1.00;;;21.90;54.40;;;;;;4926216;29;20661;-58
2023/07/01 10:14:50;;;;;;;2.53;1.13;;;21.90;54.30;;;;;;4926727;29;20063;-59
2023/07/01 10:17:19;;;;;;;2.70;1.35;;;22.00;54.40;;;;;;4927431;29;20060;-58
2023/07/01 10:19:47;;;;;;;1.77;1.10;;;22.00;54.30;;;;;;4927584;29;20063;-59
2023/07/01 10:22:23;;;;;;;1.30;0.90;;;22.00;54.20;;;;;;4927784;29;20399;-58
2023/07/01 10:25:05;;;;;;;2.33;2.08;;;22.00;54.20;;;;;;4927749;29;20052;-58
2023/07/01 10:28:03;;;;;;;3.25;1.40;;;22.00;54.20;;;;;;4926653;29;20063;-59
2023/07/01 10:31:14;;;;;;;1.90;1.20;;;22.00;54.40;;;;;;4927573;29;20521;-58
2023/07/01 10:33:54;;;;;;;1.17;1.00;;;21.90;54.30;;;;;;4923409;29;20060;-59
2023/07/01 10:36:21;;;;;;;2.75;1.02;;;21.90;54.40;;;;;;4924500;29;20074;-59
2023/07/01 10:38:50;;;;;;;2.15;1.10;;;21.90;54.30;;;;;;4923463;29;20056;-58
2023/07/01 10:41:51;;;;;;;17.30;10.02;;;21.90;54.40;;;;;;4924921;29;20044;-60
2023/07/01 10:44:25;;;;;;;4.13;2.75;;;21.90;54.70;;;;;;4924411;29;20081;-58
2023/07/01 10:47:22;;;;;;;1.95;1.30;;;21.90;54.70;;;;;;4924380;29;20055;-58
2023/07/01 10:50:11;;;;;;;2.47;1.10;;;21.90;54.80;;;;;;4849366;29;20481;-56
2023/07/01 10:53:02;;;;;;;0.95;0.77;;;21.90;54.90;;;;;;4915305;29;20067;-58
2023/07/01 11:05:12;;;;;;;1.10;0.85;;;21.90;54.90;;;;;;4910771;23;20133;-58
2023/07/01 11:07:41;;;;;;;1.08;0.88;;;21.90;55.00;;;;;;4906018;29;20432;-58
2023/07/01 11:10:09;;;;;;;1.60;1.00;;;21.90;55.10;;;;;;4908600;29;20091;-58
2023/07/01 11:12:36;;;;;;;1.48;0.98;;;21.90;55.20;;;;;;4907267;29;20417;-57
2023/07/01 11:15:04;;;;;;;0.80;0.80;;;21.90;55.30;;;;;;4907115;29;20060;-58
2023/07/01 11:17:31;;;;;;;1.20;0.98;;;22.00;55.30;;;;;;4907157;29;20052;-60
2023/07/01 11:19:59;;;;;;;1.92;0.80;;;22.00;55.30;;;;;;4904247;29;20063;-59
2023/07/01 11:22:27;;;;;;;1.30;1.10;;;22.00;55.30;;;;;;4907635;29;20145;-59
2023/07/01 11:25:03;;;;;;;2.65;0.88;;;22.00;55.40;;;;;;4907192;29;20500;-58
2023/07/01 11:27:30;;;;;;;0.95;0.90;;;22.00;55.50;;;;;;4906522;29;20595;-58
2023/07/01 11:29:57;;;;;;;3.22;0.90;;;22.00;55.30;;;;;;4907084;29;20064;-56
2023/07/01 11:32:25;;;;;;;1.67;0.98;;;22.10;55.40;;;;;;4906416;29;20051;-58
2023/07/01 11:34:58;;;;;;;1.02;0.80;;;22.10;55.40;;;;;;4905352;29;20063;-58
2023/07/01 11:37:28;;;;;;;0.98;0.77;;;22.10;55.50;;;;;;4904917;29;20063;-58
2023/07/01 11:39:56;;;;;;;2.28;1.17;;;22.10;55.30;;;;;;4907400;29;20071;-59
2023/07/01 11:42:25;;;;;;;1.60;0.88;;;22.10;55.30;;;;;;4903797;29;20071;-57
2023/07/01 11:44:53;;;;;;;1.85;0.80;;;22.20;55.50;;;;;;4906129;29;20066;-58
2023/07/01 11:47:20;;;;;;;1.90;1.00;;;22.20;55.50;;;;;;4904813;29;20381;-58
2023/07/01 11:49:48;;;;;;;0.68;0.65;;;22.20;55.50;;;;;;4906388;29;20074;-57
2023/07/01 11:52:23;;;;;;;0.80;0.70;;;22.20;55.40;;;;;;4905049;29;20052;-58
2023/07/01 11:54:54;;;;;;;4.15;2.60;;;22.20;55.50;;;;;;4904799;29;20060;-58
2023/07/01 11:57:22;;;;;;;2.38;1.35;;;22.20;55.50;;;;;;4905477;29;20063;-58
2023/07/01 11:59:53;;;;;;;1.55;1.10;;;22.20;55.60;;;;;;4905592;29;20408;-58
2023/07/01 12:02:27;;;;;;;1.83;0.80;;;22.20;55.80;;;;;;4905977;29;20523;-59
2023/07/01 12:04:54;;;;;;;1.50;0.85;;;22.20;55.90;;;;;;4905292;29;20059;-60
2023/07/01 12:07:22;;;;;;;3.05;0.90;;;22.20;55.80;;;;;;4906764;29;20106;-58
2023/07/01 12:09:49;;;;;;;0.90;0.80;;;22.30;55.90;;;;;;4905808;29;20063;-59
2023/07/01 12:12:19;;;;;;;1.00;0.80;;;22.30;55.80;;;;;;4906152;29;20055;-60
2023/07/01 12:14:46;;;;;;;1.05;0.80;;;22.30;55.80;;;;;;4906059;29;20496;-59
2023/07/01 12:17:25;;;;;;;0.95;0.85;;;22.30;55.80;;;;;;4904074;29;20048;-59
2023/07/01 12:19:53;;;;;;;1.38;0.95;;;22.40;55.90;;;;;;4901620;29;20420;-58
2023/07/01 12:22:20;;;;;;;2.63;0.70;;;22.40;55.70;;;;;;4905367;29;20052;-58
2023/07/01 12:24:54;;;;;;;0.80;0.80;;;22.40;55.70;;;;;;4900316;29;20397;-58
2023/07/01 12:27:23;;;;;;;0.80;0.70;;;22.40;55.90;;;;;;4905912;29;20052;-58
2023/07/01 12:29:50;;;;;;;0.73;0.52;;;22.40;55.80;;;;;;4905295;29;20501;-58
2023/07/01 12:32:18;;;;;;;1.20;0.70;;;22.40;55.70;;;;;;4898875;29;20060;-59
2023/07/01 12:34:45;;;;;;;0.60;0.60;;;22.40;55.70;;;;;;4897668;29;20408;-58
2023/07/01 12:37:12;;;;;;;1.08;0.70;;;22.40;55.80;;;;;;4898453;29;20412;-58
2023/07/01 12:39:40;;;;;;;0.77;0.45;;;22.40;55.80;;;;;;4905675;29;20060;-58
2023/07/01 12:42:08;;;;;;;0.80;0.80;;;22.40;55.70;;;;;;4904815;29;20060;-58
2023/07/01 12:44:36;;;;;;;1.33;0.60;;;22.30;55.70;;;;;;4904957;29;20064;-56
2023/07/01 12:47:04;;;;;;;1.13;0.63;;;22.30;55.70;;;;;;4905743;29;20100;-58
2023/07/01 12:49:32;;;;;;;0.60;0.60;;;22.30;55.70;;;;;;4903811;29;20416;-57
2023/07/01 12:52:00;;;;;;;0.57;0.50;;;22.30;55.70;;;;;;4903477;29;20056;-60
2023/07/01 12:54:27;;;;;;;0.50;0.50;;;22.30;55.80;;;;;;4905444;29;20055;-60
2023/07/01 12:56:56;;;;;;;0.57;0.57;;;22.30;55.90;;;;;;4904939;29;20052;-59
2023/07/01 12:59:23;;;;;;;0.95;0.70;;;22.30;56.00;;;;;;4905779;29;20432;-57
2023/07/01 13:01:52;;;;;;;0.93;0.50;;;22.30;56.00;;;;;;4904198;29;20064;-57
2023/07/01 13:04:19;;;;;;;2.30;0.68;;;22.30;56.10;;;;;;4902576;29;20162;-57
2023/07/01 13:06:48;;;;;;;0.57;0.57;;;22.30;56.20;;;;;;4904013;29;20052;-58
2023/07/01 13:09:23;;;;;;;0.30;0.30;;;22.30;56.30;;;;;;4905608;29;20063;-58